Belton, Texas
Current Conditions -  °F | °C
As of 10:35 AM on Friday 19 Dec 2014 (Local Time) from KTPL Reporting Station
Overcast Overcast  
Wind Chill: 44°   Ceiling: 400
Heat Index: 48°   Visibility: 4mi
Dew Point: 45°   Wind: 9mph
Humidity: 87%   Direction: 350°N
Pressure: 30.16"   Gusts: NA
Location:  31.06°N, 97.46°W
Report Text: KTPL 191635Z AUTO 35008KT 4SM OVC004 09/07 A3016 RMK AO1
Loading
Personal Weather Stations






























Interactive Weather Map New forecast layout! Learn more

10-Day Weather Forecast

Advertisements
Track Severe Weather on mobile